createdAt,value
2022-10-09T00:00:26.420Z,15.15
2022-10-09T00:02:53.043Z,16.77
2022-10-09T00:05:20.847Z,12.50
2022-10-09T00:07:47.674Z,10.20
2022-10-09T00:10:14.293Z,12.02
2022-10-09T00:12:40.996Z,14.00
2022-10-09T00:15:08.071Z,12.50
2022-10-09T00:17:34.791Z,10.43
2022-10-09T00:20:01.536Z,9.80
2022-10-09T00:24:54.974Z,14.32
2022-10-09T00:27:22.925Z,17.42
2022-10-09T00:29:50.310Z,6.97
2022-10-09T00:32:17.636Z,22.50
2022-10-09T00:34:44.595Z,12.93
2022-10-09T00:37:11.277Z,17.63
2022-10-09T00:39:38.005Z,17.67
2022-10-09T00:42:05.063Z,10.07
2022-10-09T00:44:57.097Z,18.58
2022-10-09T00:47:29.701Z,14.95
2022-10-09T00:50:12.907Z,12.02
2022-10-09T00:52:40.051Z,14.85
2022-10-09T00:55:08.141Z,12.68
2022-10-09T00:57:35.673Z,16.23
2022-10-09T01:00:05.798Z,17.75
2022-10-09T01:02:32.644Z,14.57
2022-10-09T01:04:59.554Z,12.63
2022-10-09T01:10:32.803Z,14.25
2022-10-09T01:13:17.811Z,15.20
2022-10-09T01:15:58.803Z,10.35
2022-10-09T01:18:50.500Z,9.27
2022-10-09T01:21:20.912Z,15.88
2022-10-09T01:23:56.181Z,16.50
2022-10-09T01:26:43.030Z,11.10
2022-10-09T01:29:11.457Z,15.23
2022-10-09T01:31:42.782Z,7.63
2022-10-09T01:34:12.094Z,8.52
2022-10-09T01:36:40.417Z,9.23
2022-10-09T01:39:10.165Z,11.52
2022-10-09T01:41:37.511Z,6.85
2022-10-09T01:44:14.365Z,9.27
2022-10-09T01:46:41.051Z,6.60
2022-10-09T01:52:11.092Z,12.27
2022-10-09T01:54:49.756Z,16.83
2022-10-09T01:57:23.256Z,13.13
2022-10-09T01:59:52.478Z,8.98
2022-10-09T02:02:20.793Z,9.77
2022-10-09T02:04:48.946Z,9.23
2022-10-09T02:07:16.650Z,18.95
2022-10-09T02:09:44.463Z,7.90
2022-10-09T02:12:12.672Z,9.15
2022-10-09T02:14:39.455Z,14.90
2022-10-09T02:19:43.078Z,12.68
2022-10-09T02:22:21.167Z,10.35
2022-10-09T02:24:48.080Z,11.43
2022-10-09T02:29:43.573Z,10.10
2022-10-09T02:32:10.839Z,10.75
2022-10-09T02:34:37.533Z,12.35
2022-10-09T02:37:05.072Z,12.07
2022-10-09T02:39:31.746Z,12.25
2022-10-09T02:41:58.543Z,10.93
2022-10-09T02:44:25.288Z,15.88
2022-10-09T02:49:18.991Z,13.43
2022-10-09T02:51:45.820Z,12.70
2022-10-09T02:56:39.372Z,22.55
2022-10-09T02:59:06.772Z,16.02
2022-10-09T03:01:33.603Z,15.35
2022-10-09T03:06:28.616Z,10.38
2022-10-09T03:08:56.092Z,15.20
2022-10-09T03:11:24.843Z,13.85
2022-10-09T03:13:52.106Z,16.70
2022-10-09T03:16:21.619Z,19.02
2022-10-09T03:18:49.111Z,10.70
2022-10-09T03:21:22.426Z,11.30
2022-10-09T03:23:49.786Z,17.40
2022-10-09T03:26:19.714Z,12.35
2022-10-09T03:28:48.766Z,15.10
2022-10-09T03:31:33.415Z,14.13
2022-10-09T03:34:04.422Z,17.05
2022-10-09T03:36:31.146Z,12.23
2022-10-09T03:41:24.466Z,15.52
2022-10-09T03:43:51.196Z,15.90
2022-10-09T03:48:44.713Z,19.38
2022-10-09T03:53:38.051Z,10.43
2022-10-09T03:56:04.931Z,12.30
2022-10-09T03:58:31.702Z,14.43
2022-10-09T04:00:58.500Z,13.85
2022-10-09T04:05:53.689Z,18.00
2022-10-09T04:08:20.381Z,20.23
2022-10-09T04:10:47.014Z,24.98
2022-10-09T04:13:13.756Z,14.73
2022-10-09T04:15:40.369Z,17.90
2022-10-09T04:18:07.644Z,14.68
2022-10-09T04:20:34.310Z,18.92
2022-10-09T04:23:01.467Z,17.20
2022-10-09T04:25:28.269Z,19.55
2022-10-09T04:27:54.938Z,13.40
2022-10-09T04:30:21.622Z,11.90
2022-10-09T04:32:48.740Z,13.20
2022-10-09T04:35:16.635Z,14.40
2022-10-09T04:37:43.424Z,24.10
2022-10-09T04:42:36.901Z,15.90
2022-10-09T04:47:30.972Z,16.17
2022-10-09T04:49:57.668Z,16.08
2022-10-09T04:52:24.393Z,17.77
2022-10-09T04:57:17.912Z,15.50
2022-10-09T05:02:11.275Z,12.95
2022-10-09T05:04:38.137Z,17.70
2022-10-09T05:09:31.357Z,14.30
2022-10-09T05:11:57.968Z,14.75
2022-10-09T05:14:24.760Z,10.88
2022-10-09T05:22:07.119Z,13.30
2022-10-09T05:24:33.810Z,13.65
2022-10-09T05:27:00.444Z,13.85
2022-10-09T05:29:27.131Z,12.57
2022-10-09T05:31:53.836Z,10.88
2022-10-09T05:36:47.307Z,13.98
2022-10-09T05:41:40.549Z,15.00
2022-10-09T05:44:07.360Z,12.18
2022-10-09T05:46:34.774Z,10.57
2022-10-09T05:49:07.766Z,18.17
2022-10-09T05:51:37.194Z,10.63
2022-10-09T05:54:05.593Z,8.63
2022-10-09T05:56:34.882Z,14.35
2022-10-09T05:59:07.017Z,14.25
2022-10-09T06:01:36.423Z,14.48
2022-10-09T06:04:03.949Z,13.15
2022-10-09T06:06:33.225Z,10.98
2022-10-09T06:09:00.300Z,14.48
2022-10-09T06:11:31.483Z,16.27
2022-10-09T06:14:00.261Z,14.68
2022-10-09T06:16:30.333Z,17.67
2022-10-09T06:18:58.010Z,11.60
2022-10-09T06:21:26.395Z,15.40
2022-10-09T06:23:56.063Z,9.80
2022-10-09T06:26:24.452Z,16.02
2022-10-09T06:28:52.462Z,12.00
2022-10-09T06:31:24.864Z,17.20
2022-10-09T06:33:52.835Z,10.85
2022-10-09T06:36:22.508Z,11.18
2022-10-09T06:38:49.970Z,11.43
2022-10-09T06:41:22.198Z,17.42
2022-10-09T06:43:56.166Z,13.88
2022-10-09T06:46:26.381Z,11.85
2022-10-09T06:48:53.143Z,11.38
2022-10-09T06:51:24.081Z,13.93
2022-10-09T06:53:52.941Z,14.32
2022-10-09T06:56:22.012Z,13.35
2022-10-09T06:58:48.940Z,15.55
2022-10-09T07:01:19.175Z,18.52
2022-10-09T07:03:48.677Z,14.90
2022-10-09T07:06:21.057Z,15.38
2022-10-09T07:08:50.327Z,13.02
2022-10-09T07:11:25.188Z,12.30
2022-10-09T07:13:55.106Z,12.95
2022-10-09T07:16:27.706Z,15.43
2022-10-09T07:18:55.322Z,17.27
2022-10-09T07:21:23.932Z,23.85
2022-10-09T07:23:50.710Z,15.20
2022-10-09T07:26:20.193Z,15.27
2022-10-09T07:28:48.003Z,13.73
2022-10-09T07:31:15.270Z,20.02
2022-10-09T07:33:42.155Z,18.02
2022-10-09T07:38:36.646Z,23.00
2022-10-09T07:41:09.259Z,21.40
2022-10-09T07:43:37.901Z,16.40
2022-10-09T07:46:07.278Z,15.20
2022-10-09T07:48:35.364Z,17.25
2022-10-09T07:51:13.938Z,14.82
2022-10-09T07:53:41.063Z,21.15
2022-10-09T07:56:13.003Z,11.98
2022-10-09T07:58:39.645Z,24.65
2022-10-09T08:01:07.513Z,29.30
2022-10-09T08:03:35.145Z,25.05
2022-10-09T08:06:01.810Z,25.27
2022-10-09T08:08:29.482Z,14.45
2022-10-09T08:10:56.395Z,21.70
2022-10-09T08:15:49.804Z,26.08
2022-10-09T08:20:43.325Z,24.98
2022-10-09T08:23:09.963Z,24.90
2022-10-09T08:25:37.348Z,17.42
2022-10-09T08:28:05.025Z,18.73
2022-10-09T08:30:31.991Z,16.38
2022-10-09T08:32:58.650Z,25.30
2022-10-09T08:35:25.510Z,15.07
2022-10-09T08:40:31.999Z,19.70
2022-10-09T08:43:04.774Z,18.05
2022-10-09T08:45:34.642Z,24.48
2022-10-09T08:48:07.820Z,17.45
2022-10-09T08:50:38.168Z,23.27
2022-10-09T08:53:38.067Z,18.27
2022-10-09T08:56:11.423Z,27.77
2022-10-09T08:58:40.339Z,17.40
2022-10-09T09:01:46.562Z,18.50
2022-10-09T09:04:31.432Z,22.48
2022-10-09T09:07:01.788Z,16.45
2022-10-09T09:09:35.155Z,23.00
2022-10-09T09:12:09.693Z,20.00
2022-10-09T09:14:39.083Z,19.02
2022-10-09T09:17:29.075Z,26.70
2022-10-09T09:20:08.881Z,16.70
2022-10-09T09:22:39.150Z,19.45
2022-10-09T09:25:19.965Z,21.80
2022-10-09T09:27:47.609Z,28.08
2022-10-09T09:30:19.530Z,19.90
2022-10-09T09:33:16.493Z,25.98
2022-10-09T09:36:21.482Z,24.05
2022-10-09T09:39:32.471Z,26.75
2022-10-09T09:41:36.237Z,17.70
2022-10-09T09:44:03.728Z,21.90
2022-10-09T09:46:32.231Z,22.77
2022-10-09T09:48:59.029Z,20.45
2022-10-09T09:51:29.948Z,24.00
2022-10-09T09:53:58.105Z,22.95
2022-10-09T09:56:59.722Z,19.83
2022-10-09T09:59:40.085Z,26.67
2022-10-09T10:02:09.679Z,25.40
2022-10-09T10:04:41.037Z,32.28
2022-10-09T10:07:09.802Z,28.23
2022-10-09T10:09:36.441Z,24.33
2022-10-09T10:12:04.041Z,31.27
2022-10-09T10:14:32.487Z,25.20
2022-10-09T10:17:00.914Z,21.88
2022-10-09T10:19:35.176Z,20.55
2022-10-09T10:22:03.254Z,20.80
2022-10-09T10:24:34.402Z,28.50
2022-10-09T10:27:30.665Z,22.65
2022-10-09T10:30:04.996Z,24.52
2022-10-09T10:32:38.984Z,24.35
2022-10-09T10:35:40.539Z,23.25
2022-10-09T10:38:38.424Z,16.83
2022-10-09T10:41:23.596Z,20.60
2022-10-09T10:44:15.357Z,27.40
2022-10-09T10:46:52.307Z,23.63
2022-10-09T10:49:23.219Z,21.73
2022-10-09T10:52:10.677Z,21.67
2022-10-09T10:54:46.537Z,29.02
2022-10-09T10:57:50.733Z,30.08
2022-10-09T11:00:18.118Z,19.40
2022-10-09T11:03:03.808Z,22.52
2022-10-09T11:05:45.298Z,23.25
2022-10-09T11:08:35.374Z,23.27
2022-10-09T11:11:12.367Z,22.08
2022-10-09T11:13:56.068Z,25.20
2022-10-09T11:16:52.373Z,23.58
2022-10-09T11:19:18.969Z,30.20
2022-10-09T11:22:01.419Z,24.27
2022-10-09T11:24:57.442Z,31.67
2022-10-09T11:27:44.172Z,22.63
2022-10-09T11:30:13.574Z,18.30
2022-10-09T11:33:12.466Z,26.20
2022-10-09T11:35:56.356Z,23.85
2022-10-09T11:38:29.859Z,22.45
2022-10-09T11:40:58.405Z,28.55
2022-10-09T11:43:24.967Z,22.33
2022-10-09T11:45:58.284Z,24.95
2022-10-09T11:48:42.654Z,19.13
2022-10-09T11:51:09.378Z,18.45
2022-10-09T11:53:38.486Z,28.42
2022-10-09T11:56:20.634Z,18.90
2022-10-09T11:59:01.705Z,21.17
2022-10-09T12:01:34.767Z,26.60
2022-10-09T12:04:43.598Z,21.10
2022-10-09T12:07:25.187Z,17.58
2022-10-09T12:09:59.717Z,15.32
2022-10-09T12:12:26.759Z,15.63
2022-10-09T12:14:53.889Z,16.95
2022-10-09T12:17:23.437Z,13.85
2022-10-09T12:20:00.962Z,13.75
2022-10-09T12:22:40.045Z,16.80
2022-10-09T12:25:16.897Z,17.90
2022-10-09T12:27:44.460Z,21.95
2022-10-09T12:30:11.573Z,17.92
2022-10-09T12:32:50.481Z,23.90
2022-10-09T12:35:39.096Z,18.70
2022-10-09T12:38:24.903Z,27.52
2022-10-09T12:40:53.077Z,24.80
2022-10-09T12:43:22.510Z,54.28
2022-10-09T12:45:51.713Z,31.85
2022-10-09T12:48:22.514Z,32.83
2022-10-09T12:50:49.639Z,18.33
2022-10-09T12:53:20.762Z,25.35
2022-10-09T12:55:54.452Z,22.20
2022-10-09T12:58:25.428Z,19.85
2022-10-09T13:00:55.304Z,19.92
2022-10-09T13:03:32.728Z,27.40
2022-10-09T13:08:32.448Z,29.20
2022-10-09T13:11:12.671Z,30.05
2022-10-09T13:13:40.076Z,30.75
2022-10-09T13:16:09.530Z,40.22
2022-10-09T13:18:37.849Z,32.65
2022-10-09T13:21:06.723Z,30.33
2022-10-09T13:23:35.222Z,34.88
2022-10-09T13:26:04.400Z,34.10
2022-10-09T13:28:31.819Z,39.25
2022-10-09T13:31:07.273Z,31.42
2022-10-09T13:33:34.413Z,35.90
2022-10-09T13:36:01.111Z,28.60
2022-10-09T13:41:00.778Z,33.17
2022-10-09T13:43:28.745Z,32.35
2022-10-09T13:45:55.509Z,28.88
2022-10-09T13:50:49.261Z,25.83
2022-10-09T13:53:15.946Z,29.65
2022-10-09T13:55:42.715Z,24.17
2022-10-09T14:00:37.088Z,23.52
2022-10-09T14:03:04.710Z,31.08
2022-10-09T14:05:31.393Z,22.08
2022-10-09T14:07:58.042Z,20.50
2022-10-09T14:10:24.765Z,23.75
2022-10-09T14:12:52.007Z,27.63
2022-10-09T14:15:18.910Z,26.92
2022-10-09T14:17:46.087Z,38.63
2022-10-09T14:20:13.079Z,63.63
2022-10-09T14:25:07.273Z,19.58
2022-10-09T14:30:01.778Z,21.65
2022-10-09T14:34:55.316Z,27.63
2022-10-09T14:40:08.832Z,19.25
2022-10-09T14:42:37.753Z,16.60
2022-10-09T14:45:05.016Z,12.63
2022-10-09T14:47:31.842Z,14.90
2022-10-09T14:52:25.156Z,23.90
2022-10-09T14:54:51.843Z,16.77
2022-10-09T14:57:18.547Z,19.38
2022-10-09T14:59:45.570Z,21.70
2022-10-09T15:02:15.147Z,22.95
2022-10-09T15:04:41.995Z,24.88
2022-10-09T15:09:35.239Z,21.00
2022-10-09T15:12:01.998Z,15.95
2022-10-09T15:16:55.611Z,18.75
2022-10-09T15:19:22.238Z,26.90
2022-10-09T15:21:49.024Z,16.35
2022-10-09T15:26:42.356Z,13.48
2022-10-09T15:29:09.262Z,18.33
2022-10-09T15:31:38.445Z,22.42
2022-10-09T15:34:07.478Z,16.05
2022-10-09T15:36:37.022Z,25.08
2022-10-09T15:39:05.991Z,21.92
2022-10-09T15:41:35.369Z,27.77
2022-10-09T15:44:04.714Z,14.00
2022-10-09T15:46:32.023Z,16.52
2022-10-09T15:48:58.921Z,24.58
2022-10-09T15:51:26.012Z,23.55
2022-10-09T15:53:53.192Z,17.33
2022-10-09T15:56:22.594Z,15.95
2022-10-09T15:58:50.452Z,16.13
2022-10-09T16:01:18.185Z,23.25
2022-10-09T16:03:45.488Z,17.45
2022-10-09T16:06:15.766Z,23.88
2022-10-09T16:08:42.596Z,21.55
2022-10-09T16:13:39.399Z,24.55
2022-10-09T16:16:07.983Z,18.17
2022-10-09T16:18:35.156Z,18.50
2022-10-09T16:21:16.631Z,14.77
2022-10-09T16:23:44.832Z,12.93
2022-10-09T16:26:14.171Z,11.18
2022-10-09T16:28:41.066Z,14.18
2022-10-09T16:31:07.779Z,10.50
2022-10-09T16:33:34.474Z,15.60
2022-10-09T16:36:08.645Z,10.57
2022-10-09T16:38:35.367Z,13.30
2022-10-09T16:41:02.690Z,12.40
2022-10-09T16:43:33.587Z,12.63
2022-10-09T16:46:13.414Z,10.68
2022-10-09T16:48:40.195Z,12.77
2022-10-09T16:53:34.649Z,9.77
2022-10-09T16:58:39.104Z,10.23
2022-10-09T17:01:09.795Z,17.67
2022-10-09T17:03:40.310Z,10.48
2022-10-09T17:06:12.290Z,13.57
2022-10-09T17:08:39.452Z,18.70
2022-10-09T17:11:11.574Z,17.70
2022-10-09T17:13:38.968Z,15.73
2022-10-09T17:16:07.735Z,23.45
2022-10-09T17:18:35.213Z,13.63
2022-10-09T17:21:03.753Z,15.55
2022-10-09T17:23:30.732Z,16.23
2022-10-09T17:25:57.695Z,18.23
2022-10-09T17:28:24.999Z,18.02
2022-10-09T17:30:51.811Z,12.68
2022-10-09T17:33:20.045Z,11.88
2022-10-09T17:35:47.112Z,27.60
2022-10-09T17:38:13.951Z,19.55
2022-10-09T17:43:08.568Z,12.05
2022-10-09T17:45:39.936Z,15.93
2022-10-09T17:48:08.053Z,15.55
2022-10-09T17:50:35.670Z,14.50
2022-10-09T17:53:02.825Z,13.23
2022-10-09T17:55:30.069Z,19.33
2022-10-09T17:57:57.626Z,15.68
2022-10-09T18:00:24.357Z,13.88
2022-10-09T18:02:50.982Z,13.77
2022-10-09T18:07:44.444Z,17.40
2022-10-09T18:10:11.204Z,15.57
2022-10-09T18:12:37.846Z,11.60
2022-10-09T18:15:04.922Z,27.58
2022-10-09T18:17:33.381Z,23.40
2022-10-09T18:20:00.298Z,21.45
2022-10-09T18:24:53.526Z,18.77
2022-10-09T18:27:20.363Z,17.15
2022-10-09T18:29:47.095Z,23.75
2022-10-09T18:32:13.829Z,21.38
2022-10-09T18:37:13.182Z,23.70
2022-10-09T18:42:06.480Z,15.57
2022-10-09T18:44:40.006Z,15.23
2022-10-09T18:47:11.702Z,19.98
2022-10-09T18:49:43.454Z,19.80
2022-10-09T18:52:12.157Z,20.50
2022-10-09T18:54:40.957Z,18.67
2022-10-09T18:57:08.351Z,22.15
2022-10-09T18:59:37.414Z,17.42
2022-10-09T19:02:04.229Z,19.80
2022-10-09T19:06:57.628Z,17.38
2022-10-09T19:09:24.402Z,19.35
2022-10-09T19:16:46.549Z,20.92
2022-10-09T19:19:13.305Z,17.40
2022-10-09T19:24:12.210Z,25.05
2022-10-09T19:26:40.335Z,18.42
2022-10-09T19:29:08.029Z,17.45
2022-10-09T19:31:35.752Z,23.58
2022-10-09T19:34:04.466Z,19.40
2022-10-09T19:36:34.221Z,21.17
2022-10-09T19:39:01.966Z,21.00
2022-10-09T19:41:28.798Z,18.73
2022-10-09T19:46:22.669Z,19.45
2022-10-09T19:48:50.046Z,17.45
2022-10-09T19:51:20.372Z,14.88
2022-10-09T19:53:47.854Z,27.35
2022-10-09T19:56:21.151Z,21.63
2022-10-09T19:58:48.986Z,16.95
2022-10-09T20:01:18.162Z,17.55
2022-10-09T20:03:45.511Z,14.43
2022-10-09T20:06:12.806Z,20.02
2022-10-09T20:08:41.847Z,13.07
2022-10-09T20:11:11.433Z,25.95
2022-10-09T20:13:39.314Z,15.30
2022-10-09T20:16:12.954Z,15.45
2022-10-09T20:18:42.176Z,12.93
2022-10-09T20:21:14.476Z,13.55
2022-10-09T20:23:41.767Z,16.25
2022-10-09T20:26:14.881Z,13.48
2022-10-09T20:28:42.312Z,17.08
2022-10-09T20:31:14.531Z,13.35
2022-10-09T20:33:42.617Z,24.80
2022-10-09T20:36:18.677Z,17.70
2022-10-09T20:38:45.329Z,21.70
2022-10-09T20:41:12.027Z,18.27
2022-10-09T20:43:40.125Z,31.13
2022-10-09T20:46:13.263Z,24.27
2022-10-09T20:48:41.045Z,20.23
2022-10-09T20:51:07.805Z,18.95
2022-10-09T20:56:04.882Z,23.13
2022-10-09T20:58:31.630Z,15.57
2022-10-09T21:00:58.377Z,15.73
2022-10-09T21:05:52.567Z,19.25
2022-10-09T21:08:19.354Z,16.10
2022-10-09T21:10:48.239Z,22.08
2022-10-09T21:13:15.291Z,25.60
2022-10-09T21:15:47.720Z,17.58
2022-10-09T21:18:16.415Z,21.60
2022-10-09T21:20:44.884Z,17.83
2022-10-09T21:23:13.384Z,20.90
2022-10-09T21:25:47.018Z,17.38
2022-10-09T21:28:13.716Z,13.70
2022-10-09T21:30:41.681Z,16.42
2022-10-09T21:33:09.305Z,16.77
2022-10-09T21:35:48.358Z,15.55
2022-10-09T21:38:17.663Z,16.42
2022-10-09T21:40:45.829Z,24.80
2022-10-09T21:43:13.290Z,18.75
2022-10-09T21:45:40.821Z,21.50
2022-10-09T21:48:08.106Z,17.25
2022-10-09T21:50:36.527Z,16.52
2022-10-09T21:53:04.040Z,15.95
2022-10-09T21:55:30.822Z,16.17
2022-10-09T21:57:57.484Z,15.57
2022-10-09T22:02:51.651Z,15.60
2022-10-09T22:05:18.803Z,16.13
2022-10-09T22:10:12.299Z,14.63
2022-10-09T22:15:06.214Z,12.52
2022-10-09T22:17:32.860Z,10.57
2022-10-09T22:19:59.495Z,11.00
2022-10-09T22:22:26.187Z,15.30
2022-10-09T22:24:52.844Z,11.35
2022-10-09T22:27:19.894Z,16.52
2022-10-09T22:29:46.539Z,9.75
2022-10-09T22:32:13.284Z,10.15
2022-10-09T22:37:06.675Z,12.57
2022-10-09T22:39:33.379Z,16.05
2022-10-09T22:42:00.014Z,9.32
2022-10-09T22:44:26.855Z,8.32
2022-10-09T22:49:20.159Z,15.23
2022-10-09T22:51:46.896Z,11.13
2022-10-09T22:56:42.688Z,8.27
2022-10-09T22:59:10.508Z,9.57
2022-10-09T23:01:43.673Z,10.52
2022-10-09T23:04:13.157Z,8.18
2022-10-09T23:06:41.371Z,8.10
2022-10-09T23:09:10.595Z,10.48
2022-10-09T23:11:37.257Z,7.40
2022-10-09T23:14:04.145Z,8.82
2022-10-09T23:19:04.126Z,8.32
2022-10-09T23:21:33.299Z,6.07
2022-10-09T23:23:59.944Z,6.40
2022-10-09T23:26:29.253Z,6.68
2022-10-09T23:29:07.190Z,5.43
2022-10-09T23:31:33.893Z,7.82
2022-10-09T23:34:00.678Z,5.00
2022-10-09T23:36:29.344Z,5.65
2022-10-09T23:38:57.137Z,4.63
2022-10-09T23:41:26.198Z,4.68
2022-10-09T23:43:53.401Z,4.65
2022-10-09T23:46:22.599Z,4.53
2022-10-09T23:48:50.615Z,5.72
2022-10-09T23:51:19.568Z,4.82
2022-10-09T23:53:46.770Z,5.80
2022-10-09T23:56:16.621Z,4.32
2022-10-09T23:58:43.779Z,5.05
